sensor_id;sensor_type;location;lat;lon;timestamp;P1;durP1;ratioP1;P2;durP2;ratioP2
45784;SDS011;31489;51.404;5.474;2023-05-27T00:00:03;13.98;;;4.03;;
45784;SDS011;31489;51.404;5.474;2023-05-27T00:02:31;14.90;;;4.18;;
45784;SDS011;31489;51.404;5.474;2023-05-27T00:04:57;10.95;;;3.97;;
45784;SDS011;31489;51.404;5.474;2023-05-27T00:07:22;13.05;;;4.05;;
45784;SDS011;31489;51.404;5.474;2023-05-27T00:09:48;13.57;;;3.58;;
45784;SDS011;31489;51.404;5.474;2023-05-27T00:12:13;10.57;;;3.63;;
45784;SDS011;31489;51.404;5.474;2023-05-27T00:14:40;12.38;;;3.95;;
45784;SDS011;31489;51.404;5.474;2023-05-27T00:17:05;11.52;;;3.75;;
45784;SDS011;31489;51.404;5.474;2023-05-27T00:19:32;14.18;;;3.53;;
45784;SDS011;31489;51.404;5.474;2023-05-27T00:21:57;11.77;;;3.92;;
45784;SDS011;31489;51.404;5.474;2023-05-27T00:24:23;12.50;;;4.15;;
45784;SDS011;31489;51.404;5.474;2023-05-27T00:26:48;11.63;;;4.57;;
45784;SDS011;31489;51.404;5.474;2023-05-27T00:29:15;11.43;;;3.95;;
45784;SDS011;31489;51.404;5.474;2023-05-27T00:31:41;12.80;;;4.20;;
45784;SDS011;31489;51.404;5.474;2023-05-27T00:34:07;8.48;;;3.83;;
45784;SDS011;31489;51.404;5.474;2023-05-27T00:36:33;10.77;;;3.60;;
45784;SDS011;31489;51.404;5.474;2023-05-27T00:38:59;10.27;;;3.67;;
45784;SDS011;31489;51.404;5.474;2023-05-27T00:41:26;12.88;;;3.90;;
45784;SDS011;31489;51.404;5.474;2023-05-27T00:43:52;10.65;;;3.97;;
45784;SDS011;31489;51.404;5.474;2023-05-27T00:46:18;14.82;;;4.32;;
45784;SDS011;31489;51.404;5.474;2023-05-27T00:48:45;14.80;;;4.30;;
45784;SDS011;31489;51.404;5.474;2023-05-27T00:51:10;11.50;;;3.60;;
45784;SDS011;31489;51.404;5.474;2023-05-27T00:53:40;14.18;;;3.92;;
45784;SDS011;31489;51.404;5.474;2023-05-27T00:56:08;12.20;;;3.90;;
45784;SDS011;31489;51.404;5.474;2023-05-27T00:58:34;11.68;;;3.60;;
45784;SDS011;31489;51.404;5.474;2023-05-27T01:01:01;11.10;;;3.85;;
45784;SDS011;31489;51.404;5.474;2023-05-27T01:03:28;16.90;;;4.07;;
45784;SDS011;31489;51.404;5.474;2023-05-27T01:06:03;16.52;;;4.05;;
45784;SDS011;31489;51.404;5.474;2023-05-27T01:08:37;13.55;;;4.18;;
45784;SDS011;31489;51.404;5.474;2023-05-27T01:11:06;11.07;;;3.83;;
45784;SDS011;31489;51.404;5.474;2023-05-27T01:13:36;11.90;;;4.20;;
45784;SDS011;31489;51.404;5.474;2023-05-27T01:16:08;16.33;;;4.15;;
45784;SDS011;31489;51.404;5.474;2023-05-27T01:18:36;15.45;;;4.35;;
45784;SDS011;31489;51.404;5.474;2023-05-27T01:21:12;14.43;;;3.47;;
45784;SDS011;31489;51.404;5.474;2023-05-27T01:23:45;14.38;;;4.20;;
45784;SDS011;31489;51.404;5.474;2023-05-27T01:26:13;12.20;;;3.70;;
45784;SDS011;31489;51.404;5.474;2023-05-27T01:28:38;14.07;;;4.10;;
45784;SDS011;31489;51.404;5.474;2023-05-27T01:34:09;14.50;;;3.85;;
45784;SDS011;31489;51.404;5.474;2023-05-27T01:36:58;10.95;;;3.85;;
45784;SDS011;31489;51.404;5.474;2023-05-27T01:39:27;15.48;;;3.83;;
45784;SDS011;31489;51.404;5.474;2023-05-27T01:41:53;12.13;;;3.95;;
45784;SDS011;31489;51.404;5.474;2023-05-27T01:44:21;8.32;;;3.13;;
45784;SDS011;31489;51.404;5.474;2023-05-27T01:46:47;11.02;;;3.60;;
45784;SDS011;31489;51.404;5.474;2023-05-27T01:49:12;12.80;;;4.13;;
45784;SDS011;31489;51.404;5.474;2023-05-27T01:51:38;12.13;;;3.45;;
45784;SDS011;31489;51.404;5.474;2023-05-27T01:54:04;12.73;;;3.60;;
45784;SDS011;31489;51.404;5.474;2023-05-27T01:56:29;9.43;;;3.05;;
45784;SDS011;31489;51.404;5.474;2023-05-27T01:58:56;15.90;;;4.13;;
45784;SDS011;31489;51.404;5.474;2023-05-27T02:01:22;13.20;;;4.13;;
45784;SDS011;31489;51.404;5.474;2023-05-27T02:03:48;12.45;;;4.18;;
45784;SDS011;31489;51.404;5.474;2023-05-27T02:06:13;10.77;;;3.55;;
45784;SDS011;31489;51.404;5.474;2023-05-27T02:08:39;10.70;;;3.53;;
45784;SDS011;31489;51.404;5.474;2023-05-27T02:11:08;8.73;;;3.58;;
45784;SDS011;31489;51.404;5.474;2023-05-27T02:13:33;12.98;;;3.80;;
45784;SDS011;31489;51.404;5.474;2023-05-27T02:15:59;12.70;;;4.60;;
45784;SDS011;31489;51.404;5.474;2023-05-27T02:18:25;16.38;;;4.03;;
45784;SDS011;31489;51.404;5.474;2023-05-27T02:20:50;11.70;;;3.53;;
45784;SDS011;31489;51.404;5.474;2023-05-27T02:23:16;13.32;;;4.03;;
45784;SDS011;31489;51.404;5.474;2023-05-27T02:25:41;10.00;;;3.88;;
45784;SDS011;31489;51.404;5.474;2023-05-27T02:28:07;11.75;;;4.30;;
45784;SDS011;31489;51.404;5.474;2023-05-27T02:30:33;13.85;;;4.13;;
45784;SDS011;31489;51.404;5.474;2023-05-27T02:32:58;11.25;;;4.13;;
45784;SDS011;31489;51.404;5.474;2023-05-27T02:35:24;14.60;;;4.38;;
45784;SDS011;31489;51.404;5.474;2023-05-27T02:37:50;12.57;;;4.28;;
45784;SDS011;31489;51.404;5.474;2023-05-27T02:40:28;12.57;;;4.40;;
45784;SDS011;31489;51.404;5.474;2023-05-27T02:42:55;12.65;;;3.97;;
45784;SDS011;31489;51.404;5.474;2023-05-27T02:45:21;11.00;;;4.25;;
45784;SDS011;31489;51.404;5.474;2023-05-27T02:47:47;13.52;;;3.97;;
45784;SDS011;31489;51.404;5.474;2023-05-27T02:50:13;13.00;;;4.72;;
45784;SDS011;31489;51.404;5.474;2023-05-27T02:52:39;11.48;;;4.32;;
45784;SDS011;31489;51.404;5.474;2023-05-27T02:55:04;13.90;;;4.00;;
45784;SDS011;31489;51.404;5.474;2023-05-27T02:57:31;12.63;;;4.07;;
45784;SDS011;31489;51.404;5.474;2023-05-27T02:59:56;11.02;;;3.70;;
45784;SDS011;31489;51.404;5.474;2023-05-27T03:02:22;11.48;;;3.50;;
45784;SDS011;31489;51.404;5.474;2023-05-27T03:04:48;10.88;;;4.07;;
45784;SDS011;31489;51.404;5.474;2023-05-27T03:07:14;12.23;;;4.05;;
45784;SDS011;31489;51.404;5.474;2023-05-27T03:09:39;9.95;;;3.88;;
45784;SDS011;31489;51.404;5.474;2023-05-27T03:12:05;13.80;;;4.18;;
45784;SDS011;31489;51.404;5.474;2023-05-27T03:14:31;13.15;;;3.97;;
45784;SDS011;31489;51.404;5.474;2023-05-27T03:16:57;12.50;;;4.32;;
45784;SDS011;31489;51.404;5.474;2023-05-27T03:19:23;13.00;;;4.25;;
45784;SDS011;31489;51.404;5.474;2023-05-27T03:21:49;14.68;;;3.92;;
45784;SDS011;31489;51.404;5.474;2023-05-27T03:24:16;10.50;;;3.85;;
45784;SDS011;31489;51.404;5.474;2023-05-27T03:26:41;13.45;;;4.28;;
45784;SDS011;31489;51.404;5.474;2023-05-27T03:29:07;11.70;;;3.97;;
45784;SDS011;31489;51.404;5.474;2023-05-27T03:31:33;10.07;;;4.10;;
45784;SDS011;31489;51.404;5.474;2023-05-27T03:33:58;11.02;;;3.72;;
45784;SDS011;31489;51.404;5.474;2023-05-27T03:36:24;15.20;;;4.43;;
45784;SDS011;31489;51.404;5.474;2023-05-27T03:38:50;9.15;;;3.63;;
45784;SDS011;31489;51.404;5.474;2023-05-27T03:41:15;13.13;;;4.65;;
45784;SDS011;31489;51.404;5.474;2023-05-27T03:43:41;12.98;;;4.13;;
45784;SDS011;31489;51.404;5.474;2023-05-27T03:46:06;16.17;;;4.05;;
45784;SDS011;31489;51.404;5.474;2023-05-27T03:48:32;15.45;;;4.18;;
45784;SDS011;31489;51.404;5.474;2023-05-27T03:50:58;13.70;;;3.72;;
45784;SDS011;31489;51.404;5.474;2023-05-27T03:53:24;12.07;;;3.95;;
45784;SDS011;31489;51.404;5.474;2023-05-27T03:55:49;13.75;;;4.35;;
45784;SDS011;31489;51.404;5.474;2023-05-27T03:58:18;11.32;;;4.35;;
45784;SDS011;31489;51.404;5.474;2023-05-27T04:00:43;12.20;;;4.20;;
45784;SDS011;31489;51.404;5.474;2023-05-27T04:03:09;14.95;;;4.43;;
45784;SDS011;31489;51.404;5.474;2023-05-27T04:05:35;11.80;;;3.92;;
45784;SDS011;31489;51.404;5.474;2023-05-27T04:08:01;10.63;;;4.15;;
45784;SDS011;31489;51.404;5.474;2023-05-27T04:10:28;8.98;;;3.72;;
45784;SDS011;31489;51.404;5.474;2023-05-27T04:12:54;9.20;;;3.95;;
45784;SDS011;31489;51.404;5.474;2023-05-27T04:15:19;11.35;;;4.25;;
45784;SDS011;31489;51.404;5.474;2023-05-27T04:17:45;14.93;;;4.03;;
45784;SDS011;31489;51.404;5.474;2023-05-27T04:20:11;10.77;;;3.67;;
45784;SDS011;31489;51.404;5.474;2023-05-27T04:22:43;14.30;;;4.38;;
45784;SDS011;31489;51.404;5.474;2023-05-27T04:25:09;10.75;;;4.10;;
45784;SDS011;31489;51.404;5.474;2023-05-27T04:27:34;14.27;;;4.35;;
45784;SDS011;31489;51.404;5.474;2023-05-27T04:30:01;12.85;;;3.90;;
45784;SDS011;31489;51.404;5.474;2023-05-27T04:32:28;15.60;;;4.32;;
45784;SDS011;31489;51.404;5.474;2023-05-27T04:34:57;12.23;;;4.07;;
45784;SDS011;31489;51.404;5.474;2023-05-27T04:37:24;13.35;;;4.28;;
45784;SDS011;31489;51.404;5.474;2023-05-27T04:39:53;11.52;;;4.18;;
45784;SDS011;31489;51.404;5.474;2023-05-27T04:42:22;11.43;;;3.80;;
45784;SDS011;31489;51.404;5.474;2023-05-27T04:44:48;13.80;;;4.30;;
45784;SDS011;31489;51.404;5.474;2023-05-27T04:47:14;12.18;;;4.03;;
45784;SDS011;31489;51.404;5.474;2023-05-27T04:49:40;11.05;;;4.57;;
45784;SDS011;31489;51.404;5.474;2023-05-27T04:52:05;18.50;;;4.38;;
45784;SDS011;31489;51.404;5.474;2023-05-27T04:54:32;15.68;;;4.05;;
45784;SDS011;31489;51.404;5.474;2023-05-27T04:56:58;13.85;;;4.13;;
45784;SDS011;31489;51.404;5.474;2023-05-27T04:59:24;14.75;;;4.18;;
45784;SDS011;31489;51.404;5.474;2023-05-27T05:02:00;10.95;;;3.75;;
45784;SDS011;31489;51.404;5.474;2023-05-27T05:04:36;11.40;;;4.07;;
45784;SDS011;31489;51.404;5.474;2023-05-27T05:07:02;10.73;;;3.83;;
45784;SDS011;31489;51.404;5.474;2023-05-27T05:09:28;11.63;;;3.85;;
45784;SDS011;31489;51.404;5.474;2023-05-27T05:11:54;14.80;;;4.18;;
45784;SDS011;31489;51.404;5.474;2023-05-27T05:14:20;11.07;;;4.22;;
45784;SDS011;31489;51.404;5.474;2023-05-27T05:16:46;12.60;;;4.25;;
45784;SDS011;31489;51.404;5.474;2023-05-27T05:19:12;16.42;;;4.65;;
45784;SDS011;31489;51.404;5.474;2023-05-27T05:21:37;13.00;;;4.30;;
45784;SDS011;31489;51.404;5.474;2023-05-27T05:24:03;11.80;;;4.20;;
45784;SDS011;31489;51.404;5.474;2023-05-27T05:26:29;11.32;;;4.20;;
45784;SDS011;31489;51.404;5.474;2023-05-27T05:28:58;11.52;;;4.13;;
45784;SDS011;31489;51.404;5.474;2023-05-27T05:31:23;12.95;;;4.43;;
45784;SDS011;31489;51.404;5.474;2023-05-27T05:33:49;11.65;;;3.80;;
45784;SDS011;31489;51.404;5.474;2023-05-27T05:36:17;10.23;;;4.13;;
45784;SDS011;31489;51.404;5.474;2023-05-27T05:38:43;13.15;;;4.53;;
45784;SDS011;31489;51.404;5.474;2023-05-27T05:41:08;19.42;;;4.45;;
45784;SDS011;31489;51.404;5.474;2023-05-27T05:43:37;11.95;;;4.65;;
45784;SDS011;31489;51.404;5.474;2023-05-27T05:46:02;14.00;;;4.72;;
45784;SDS011;31489;51.404;5.474;2023-05-27T05:48:28;11.07;;;4.18;;
45784;SDS011;31489;51.404;5.474;2023-05-27T05:50:54;14.32;;;4.57;;
45784;SDS011;31489;51.404;5.474;2023-05-27T05:53:19;15.88;;;5.18;;
45784;SDS011;31489;51.404;5.474;2023-05-27T05:55:45;17.30;;;4.28;;
45784;SDS011;31489;51.404;5.474;2023-05-27T05:58:11;17.27;;;5.15;;
45784;SDS011;31489;51.404;5.474;2023-05-27T06:00:36;12.63;;;4.70;;
45784;SDS011;31489;51.404;5.474;2023-05-27T06:03:02;16.48;;;4.80;;
45784;SDS011;31489;51.404;5.474;2023-05-27T06:05:27;16.17;;;5.10;;
45784;SDS011;31489;51.404;5.474;2023-05-27T06:07:53;34.30;;;7.60;;
45784;SDS011;31489;51.404;5.474;2023-05-27T06:10:19;13.18;;;5.10;;
45784;SDS011;31489;51.404;5.474;2023-05-27T06:12:51;13.50;;;4.65;;
45784;SDS011;31489;51.404;5.474;2023-05-27T06:15:16;22.33;;;5.82;;
45784;SDS011;31489;51.404;5.474;2023-05-27T06:17:43;18.95;;;5.55;;
45784;SDS011;31489;51.404;5.474;2023-05-27T06:20:09;30.70;;;8.20;;
45784;SDS011;31489;51.404;5.474;2023-05-27T06:22:35;74.88;;;16.02;;
45784;SDS011;31489;51.404;5.474;2023-05-27T06:25:01;24.00;;;7.07;;
45784;SDS011;31489;51.404;5.474;2023-05-27T06:27:26;25.65;;;6.30;;
45784;SDS011;31489;51.404;5.474;2023-05-27T06:29:52;21.85;;;7.20;;
45784;SDS011;31489;51.404;5.474;2023-05-27T06:32:17;15.85;;;5.43;;
45784;SDS011;31489;51.404;5.474;2023-05-27T06:34:43;18.67;;;5.53;;
45784;SDS011;31489;51.404;5.474;2023-05-27T06:37:09;23.90;;;5.75;;
45784;SDS011;31489;51.404;5.474;2023-05-27T06:39:34;25.17;;;6.00;;
45784;SDS011;31489;51.404;5.474;2023-05-27T06:42:00;16.52;;;5.18;;
45784;SDS011;31489;51.404;5.474;2023-05-27T06:44:26;16.63;;;4.95;;
45784;SDS011;31489;51.404;5.474;2023-05-27T06:46:52;15.98;;;5.10;;
45784;SDS011;31489;51.404;5.474;2023-05-27T06:49:20;21.33;;;6.15;;
45784;SDS011;31489;51.404;5.474;2023-05-27T06:51:45;30.25;;;9.05;;
45784;SDS011;31489;51.404;5.474;2023-05-27T06:54:11;22.45;;;6.28;;
45784;SDS011;31489;51.404;5.474;2023-05-27T06:56:37;16.15;;;5.07;;
45784;SDS011;31489;51.404;5.474;2023-05-27T06:59:03;24.33;;;5.68;;
45784;SDS011;31489;51.404;5.474;2023-05-27T07:01:28;49.67;;;7.05;;
45784;SDS011;31489;51.404;5.474;2023-05-27T07:03:56;14.13;;;4.90;;
45784;SDS011;31489;51.404;5.474;2023-05-27T07:06:21;17.02;;;5.72;;
45784;SDS011;31489;51.404;5.474;2023-05-27T07:08:47;20.88;;;5.05;;
45784;SDS011;31489;51.404;5.474;2023-05-27T07:11:12;17.00;;;5.32;;
45784;SDS011;31489;51.404;5.474;2023-05-27T07:13:38;21.42;;;5.20;;
45784;SDS011;31489;51.404;5.474;2023-05-27T07:16:04;11.25;;;5.43;;
45784;SDS011;31489;51.404;5.474;2023-05-27T07:18:29;16.10;;;5.28;;
45784;SDS011;31489;51.404;5.474;2023-05-27T07:20:55;16.40;;;5.68;;
45784;SDS011;31489;51.404;5.474;2023-05-27T07:23:21;15.63;;;5.28;;
45784;SDS011;31489;51.404;5.474;2023-05-27T07:25:46;15.40;;;5.55;;
45784;SDS011;31489;51.404;5.474;2023-05-27T07:28:12;24.15;;;6.15;;
45784;SDS011;31489;51.404;5.474;2023-05-27T07:30:37;15.95;;;5.50;;
45784;SDS011;31489;51.404;5.474;2023-05-27T07:33:03;15.80;;;5.80;;
45784;SDS011;31489;51.404;5.474;2023-05-27T07:35:29;14.63;;;5.32;;
45784;SDS011;31489;51.404;5.474;2023-05-27T07:37:54;20.75;;;6.00;;
45784;SDS011;31489;51.404;5.474;2023-05-27T07:40:20;13.82;;;5.57;;
45784;SDS011;31489;51.404;5.474;2023-05-27T07:42:45;14.63;;;6.00;;
45784;SDS011;31489;51.404;5.474;2023-05-27T07:45:11;17.38;;;6.05;;
45784;SDS011;31489;51.404;5.474;2023-05-27T07:47:37;16.70;;;5.82;;
45784;SDS011;31489;51.404;5.474;2023-05-27T07:50:02;14.13;;;5.53;;
45784;SDS011;31489;51.404;5.474;2023-05-27T07:52:28;15.23;;;6.18;;
45784;SDS011;31489;51.404;5.474;2023-05-27T07:54:54;13.55;;;5.57;;
45784;SDS011;31489;51.404;5.474;2023-05-27T07:57:19;13.90;;;5.63;;
45784;SDS011;31489;51.404;5.474;2023-05-27T07:59:45;16.73;;;5.20;;
45784;SDS011;31489;51.404;5.474;2023-05-27T08:02:10;12.05;;;5.40;;
45784;SDS011;31489;51.404;5.474;2023-05-27T08:04:36;15.55;;;5.40;;
45784;SDS011;31489;51.404;5.474;2023-05-27T08:07:02;14.60;;;5.57;;
45784;SDS011;31489;51.404;5.474;2023-05-27T08:09:27;16.65;;;5.90;;
45784;SDS011;31489;51.404;5.474;2023-05-27T08:11:53;18.90;;;5.57;;
45784;SDS011;31489;51.404;5.474;2023-05-27T08:14:18;14.30;;;5.40;;
45784;SDS011;31489;51.404;5.474;2023-05-27T08:16:45;16.63;;;5.30;;
45784;SDS011;31489;51.404;5.474;2023-05-27T08:19:11;12.55;;;5.15;;
45784;SDS011;31489;51.404;5.474;2023-05-27T08:21:37;13.23;;;5.45;;
45784;SDS011;31489;51.404;5.474;2023-05-27T08:24:02;14.15;;;5.55;;
45784;SDS011;31489;51.404;5.474;2023-05-27T08:26:30;13.18;;;5.43;;
45784;SDS011;31489;51.404;5.474;2023-05-27T08:28:56;12.73;;;5.28;;
45784;SDS011;31489;51.404;5.474;2023-05-27T08:31:21;17.88;;;6.05;;
45784;SDS011;31489;51.404;5.474;2023-05-27T08:33:47;15.57;;;5.70;;
45784;SDS011;31489;51.404;5.474;2023-05-27T08:36:13;15.10;;;4.93;;
45784;SDS011;31489;51.404;5.474;2023-05-27T08:38:40;15.30;;;5.47;;
45784;SDS011;31489;51.404;5.474;2023-05-27T08:41:05;16.77;;;5.55;;
45784;SDS011;31489;51.404;5.474;2023-05-27T08:43:31;17.60;;;6.20;;
45784;SDS011;31489;51.404;5.474;2023-05-27T08:45:59;18.13;;;6.78;;
45784;SDS011;31489;51.404;5.474;2023-05-27T08:48:26;13.38;;;5.28;;
45784;SDS011;31489;51.404;5.474;2023-05-27T08:50:51;15.18;;;5.75;;
45784;SDS011;31489;51.404;5.474;2023-05-27T08:53:17;14.63;;;5.82;;
45784;SDS011;31489;51.404;5.474;2023-05-27T08:55:44;14.98;;;6.05;;
45784;SDS011;31489;51.404;5.474;2023-05-27T08:58:10;16.30;;;5.85;;
45784;SDS011;31489;51.404;5.474;2023-05-27T09:00:37;16.02;;;5.75;;
45784;SDS011;31489;51.404;5.474;2023-05-27T09:03:02;10.65;;;4.70;;
45784;SDS011;31489;51.404;5.474;2023-05-27T09:05:28;15.52;;;5.40;;
45784;SDS011;31489;51.404;5.474;2023-05-27T09:07:54;14.10;;;5.65;;
45784;SDS011;31489;51.404;5.474;2023-05-27T09:10:20;11.50;;;4.80;;
45784;SDS011;31489;51.404;5.474;2023-05-27T09:12:46;15.70;;;6.07;;
45784;SDS011;31489;51.404;5.474;2023-05-27T09:15:12;16.58;;;5.50;;
45784;SDS011;31489;51.404;5.474;2023-05-27T09:17:41;12.98;;;5.10;;
45784;SDS011;31489;51.404;5.474;2023-05-27T09:20:08;15.38;;;5.93;;
45784;SDS011;31489;51.404;5.474;2023-05-27T09:22:41;13.93;;;5.25;;
45784;SDS011;31489;51.404;5.474;2023-05-27T09:25:07;16.88;;;5.85;;
45784;SDS011;31489;51.404;5.474;2023-05-27T09:27:33;16.20;;;5.45;;
45784;SDS011;31489;51.404;5.474;2023-05-27T09:30:06;15.95;;;5.70;;
45784;SDS011;31489;51.404;5.474;2023-05-27T09:32:33;12.85;;;5.07;;
45784;SDS011;31489;51.404;5.474;2023-05-27T09:34:59;21.55;;;6.03;;
45784;SDS011;31489;51.404;5.474;2023-05-27T09:39:56;15.45;;;5.18;;
45784;SDS011;31489;51.404;5.474;2023-05-27T09:42:41;15.57;;;5.55;;
45784;SDS011;31489;51.404;5.474;2023-05-27T09:45:08;9.70;;;4.55;;
45784;SDS011;31489;51.404;5.474;2023-05-27T09:47:39;14.57;;;4.93;;
45784;SDS011;31489;51.404;5.474;2023-05-27T09:50:07;17.88;;;5.22;;
45784;SDS011;31489;51.404;5.474;2023-05-27T09:52:34;16.95;;;6.30;;
45784;SDS011;31489;51.404;5.474;2023-05-27T09:55:02;13.93;;;5.20;;
45784;SDS011;31489;51.404;5.474;2023-05-27T09:57:28;15.43;;;5.32;;
45784;SDS011;31489;51.404;5.474;2023-05-27T09:59:54;12.05;;;5.13;;
45784;SDS011;31489;51.404;5.474;2023-05-27T10:02:20;14.32;;;5.20;;
45784;SDS011;31489;51.404;5.474;2023-05-27T10:04:47;15.65;;;5.28;;
45784;SDS011;31489;51.404;5.474;2023-05-27T10:07:15;10.88;;;4.70;;
45784;SDS011;31489;51.404;5.474;2023-05-27T10:09:44;15.02;;;4.80;;
45784;SDS011;31489;51.404;5.474;2023-05-27T10:12:11;13.93;;;4.70;;
45784;SDS011;31489;51.404;5.474;2023-05-27T10:14:39;13.15;;;4.88;;
45784;SDS011;31489;51.404;5.474;2023-05-27T10:17:08;18.58;;;5.47;;
45784;SDS011;31489;51.404;5.474;2023-05-27T10:19:34;16.00;;;4.93;;
45784;SDS011;31489;51.404;5.474;2023-05-27T10:22:10;15.27;;;4.90;;
45784;SDS011;31489;51.404;5.474;2023-05-27T10:24:36;15.32;;;5.55;;
45784;SDS011;31489;51.404;5.474;2023-05-27T10:27:04;15.95;;;5.20;;
45784;SDS011;31489;51.404;5.474;2023-05-27T10:29:37;13.10;;;4.65;;
45784;SDS011;31489;51.404;5.474;2023-05-27T10:32:04;13.63;;;4.80;;
45784;SDS011;31489;51.404;5.474;2023-05-27T10:34:37;14.32;;;5.50;;
45784;SDS011;31489;51.404;5.474;2023-05-27T10:37:06;13.57;;;5.05;;
45784;SDS011;31489;51.404;5.474;2023-05-27T10:39:32;10.48;;;4.03;;
45784;SDS011;31489;51.404;5.474;2023-05-27T10:41:58;10.57;;;4.25;;
45784;SDS011;31489;51.404;5.474;2023-05-27T10:44:36;13.50;;;4.85;;
45784;SDS011;31489;51.404;5.474;2023-05-27T10:47:08;14.52;;;4.80;;
45784;SDS011;31489;51.404;5.474;2023-05-27T10:49:36;12.52;;;4.45;;
45784;SDS011;31489;51.404;5.474;2023-05-27T10:52:11;12.15;;;4.60;;
45784;SDS011;31489;51.404;5.474;2023-05-27T10:54:42;9.52;;;4.40;;
45784;SDS011;31489;51.404;5.474;2023-05-27T10:57:10;9.80;;;3.83;;
45784;SDS011;31489;51.404;5.474;2023-05-27T10:59:52;11.40;;;4.30;;
45784;SDS011;31489;51.404;5.474;2023-05-27T11:02:28;10.30;;;4.20;;
45784;SDS011;31489;51.404;5.474;2023-05-27T11:05:00;14.02;;;4.72;;
45784;SDS011;31489;51.404;5.474;2023-05-27T11:07:25;13.18;;;4.20;;
45784;SDS011;31489;51.404;5.474;2023-05-27T11:09:52;14.88;;;4.70;;
45784;SDS011;31489;51.404;5.474;2023-05-27T11:12:20;10.38;;;3.63;;
45784;SDS011;31489;51.404;5.474;2023-05-27T11:14:53;10.23;;;4.00;;
45784;SDS011;31489;51.404;5.474;2023-05-27T11:17:20;13.10;;;3.72;;
45784;SDS011;31489;51.404;5.474;2023-05-27T11:19:47;13.55;;;4.88;;
45784;SDS011;31489;51.404;5.474;2023-05-27T11:22:14;9.35;;;4.03;;
45784;SDS011;31489;51.404;5.474;2023-05-27T11:24:41;11.52;;;4.03;;
45784;SDS011;31489;51.404;5.474;2023-05-27T11:27:13;12.25;;;4.22;;
45784;SDS011;31489;51.404;5.474;2023-05-27T11:29:47;12.50;;;4.10;;
45784;SDS011;31489;51.404;5.474;2023-05-27T11:34:43;12.20;;;4.05;;
45784;SDS011;31489;51.404;5.474;2023-05-27T11:37:09;14.23;;;3.97;;
45784;SDS011;31489;51.404;5.474;2023-05-27T11:39:35;12.65;;;4.13;;
45784;SDS011;31489;51.404;5.474;2023-05-27T11:42:04;9.40;;;3.70;;
45784;SDS011;31489;51.404;5.474;2023-05-27T11:44:34;10.35;;;3.70;;
45784;SDS011;31489;51.404;5.474;2023-05-27T11:46:59;8.73;;;3.78;;
45784;SDS011;31489;51.404;5.474;2023-05-27T11:49:25;8.77;;;3.83;;
45784;SDS011;31489;51.404;5.474;2023-05-27T11:51:54;11.02;;;4.03;;
45784;SDS011;31489;51.404;5.474;2023-05-27T11:54:27;8.85;;;3.45;;
45784;SDS011;31489;51.404;5.474;2023-05-27T11:56:54;8.85;;;3.60;;
45784;SDS011;31489;51.404;5.474;2023-05-27T11:59:21;10.05;;;3.70;;
45784;SDS011;31489;51.404;5.474;2023-05-27T12:01:48;9.20;;;3.83;;
45784;SDS011;31489;51.404;5.474;2023-05-27T12:04:14;11.57;;;3.90;;
45784;SDS011;31489;51.404;5.474;2023-05-27T12:06:40;12.13;;;4.10;;
45784;SDS011;31489;51.404;5.474;2023-05-27T12:09:07;7.35;;;3.63;;
45784;SDS011;31489;51.404;5.474;2023-05-27T12:11:34;12.80;;;3.85;;
45784;SDS011;31489;51.404;5.474;2023-05-27T12:14:00;9.57;;;3.53;;
45784;SDS011;31489;51.404;5.474;2023-05-27T12:16:26;9.93;;;3.58;;
45784;SDS011;31489;51.404;5.474;2023-05-27T12:18:52;9.85;;;3.92;;
45784;SDS011;31489;51.404;5.474;2023-05-27T12:21:18;10.23;;;3.55;;
45784;SDS011;31489;51.404;5.474;2023-05-27T12:23:44;10.07;;;3.72;;
45784;SDS011;31489;51.404;5.474;2023-05-27T12:26:13;11.02;;;3.80;;
45784;SDS011;31489;51.404;5.474;2023-05-27T12:28:39;9.25;;;3.95;;
45784;SDS011;31489;51.404;5.474;2023-05-27T12:31:06;8.00;;;3.85;;
45784;SDS011;31489;51.404;5.474;2023-05-27T12:33:31;12.77;;;4.03;;
45784;SDS011;31489;51.404;5.474;2023-05-27T12:35:58;10.85;;;3.80;;
45784;SDS011;31489;51.404;5.474;2023-05-27T12:38:24;11.23;;;3.72;;
45784;SDS011;31489;51.404;5.474;2023-05-27T12:40:50;9.13;;;3.70;;
45784;SDS011;31489;51.404;5.474;2023-05-27T12:43:16;10.98;;;3.95;;
45784;SDS011;31489;51.404;5.474;2023-05-27T12:45:45;14.35;;;3.83;;
45784;SDS011;31489;51.404;5.474;2023-05-27T12:48:11;13.57;;;4.10;;
45784;SDS011;31489;51.404;5.474;2023-05-27T12:50:37;8.05;;;3.45;;
45784;SDS011;31489;51.404;5.474;2023-05-27T12:53:03;12.48;;;3.45;;
45784;SDS011;31489;51.404;5.474;2023-05-27T12:55:28;9.68;;;3.88;;
45784;SDS011;31489;51.404;5.474;2023-05-27T12:57:54;6.00;;;3.03;;
45784;SDS011;31489;51.404;5.474;2023-05-27T13:00:20;12.07;;;3.90;;
45784;SDS011;31489;51.404;5.474;2023-05-27T13:02:47;11.13;;;3.67;;
45784;SDS011;31489;51.404;5.474;2023-05-27T13:05:13;7.55;;;3.08;;
45784;SDS011;31489;51.404;5.474;2023-05-27T13:07:39;9.55;;;3.63;;
45784;SDS011;31489;51.404;5.474;2023-05-27T13:10:06;10.73;;;4.07;;
45784;SDS011;31489;51.404;5.474;2023-05-27T13:12:33;10.23;;;3.28;;
45784;SDS011;31489;51.404;5.474;2023-05-27T13:15:00;10.07;;;3.50;;
45784;SDS011;31489;51.404;5.474;2023-05-27T13:17:31;7.50;;;3.10;;
45784;SDS011;31489;51.404;5.474;2023-05-27T13:19:56;8.48;;;3.55;;
45784;SDS011;31489;51.404;5.474;2023-05-27T13:22:22;10.20;;;3.20;;
45784;SDS011;31489;51.404;5.474;2023-05-27T13:24:48;9.27;;;2.88;;
45784;SDS011;31489;51.404;5.474;2023-05-27T13:27:14;6.53;;;2.90;;
45784;SDS011;31489;51.404;5.474;2023-05-27T13:29:40;9.75;;;3.15;;
45784;SDS011;31489;51.404;5.474;2023-05-27T13:32:10;10.93;;;3.30;;
45784;SDS011;31489;51.404;5.474;2023-05-27T13:34:35;11.00;;;3.45;;
45784;SDS011;31489;51.404;5.474;2023-05-27T13:37:01;8.75;;;3.67;;
45784;SDS011;31489;51.404;5.474;2023-05-27T13:39:27;10.07;;;3.42;;
45784;SDS011;31489;51.404;5.474;2023-05-27T13:41:53;9.13;;;3.20;;
45784;SDS011;31489;51.404;5.474;2023-05-27T13:44:18;9.05;;;3.50;;
45784;SDS011;31489;51.404;5.474;2023-05-27T13:46:44;7.95;;;3.03;;
45784;SDS011;31489;51.404;5.474;2023-05-27T13:49:10;12.20;;;3.50;;
45784;SDS011;31489;51.404;5.474;2023-05-27T13:51:42;8.50;;;3.38;;
45784;SDS011;31489;51.404;5.474;2023-05-27T13:54:09;8.48;;;3.85;;
45784;SDS011;31489;51.404;5.474;2023-05-27T13:56:34;14.07;;;3.75;;
45784;SDS011;31489;51.404;5.474;2023-05-27T13:59:00;12.60;;;3.30;;
45784;SDS011;31489;51.404;5.474;2023-05-27T14:01:28;10.07;;;3.45;;
45784;SDS011;31489;51.404;5.474;2023-05-27T14:03:57;11.82;;;3.60;;
45784;SDS011;31489;51.404;5.474;2023-05-27T14:06:23;8.70;;;3.47;;
45784;SDS011;31489;51.404;5.474;2023-05-27T14:08:50;8.32;;;3.50;;
45784;SDS011;31489;51.404;5.474;2023-05-27T14:11:15;9.90;;;3.35;;
45784;SDS011;31489;51.404;5.474;2023-05-27T14:13:41;8.70;;;3.45;;
45784;SDS011;31489;51.404;5.474;2023-05-27T14:16:06;9.35;;;3.45;;
45784;SDS011;31489;51.404;5.474;2023-05-27T14:18:32;6.53;;;2.97;;
45784;SDS011;31489;51.404;5.474;2023-05-27T14:20:59;9.05;;;3.20;;
45784;SDS011;31489;51.404;5.474;2023-05-27T14:23:24;10.88;;;3.35;;
45784;SDS011;31489;51.404;5.474;2023-05-27T14:25:50;6.95;;;3.20;;
45784;SDS011;31489;51.404;5.474;2023-05-27T14:28:16;6.53;;;3.00;;
45784;SDS011;31489;51.404;5.474;2023-05-27T14:30:41;10.23;;;3.58;;
45784;SDS011;31489;51.404;5.474;2023-05-27T14:33:07;9.40;;;3.28;;
45784;SDS011;31489;51.404;5.474;2023-05-27T14:35:36;8.77;;;3.15;;
45784;SDS011;31489;51.404;5.474;2023-05-27T14:38:03;8.88;;;3.63;;
45784;SDS011;31489;51.404;5.474;2023-05-27T14:40:29;8.13;;;3.75;;